sensor_id;sensor_type;location;lat;lon;timestamp;P1;durP1;ratioP1;P2;durP2;ratioP2
47625;SDS011;33342;45.574;9.252;2023-04-01T00:00:03;12.07;;;7.72;;
47625;SDS011;33342;45.574;9.252;2023-04-01T00:02:37;12.88;;;7.95;;
47625;SDS011;33342;45.574;9.252;2023-04-01T00:05:04;13.15;;;7.72;;
47625;SDS011;33342;45.574;9.252;2023-04-01T00:07:32;11.35;;;7.45;;
47625;SDS011;33342;45.574;9.252;2023-04-01T00:09:59;11.98;;;7.70;;
47625;SDS011;33342;45.574;9.252;2023-04-01T00:12:26;12.23;;;8.20;;
47625;SDS011;33342;45.574;9.252;2023-04-01T00:14:53;13.13;;;7.25;;
47625;SDS011;33342;45.574;9.252;2023-04-01T00:17:20;11.13;;;7.05;;
47625;SDS011;33342;45.574;9.252;2023-04-01T00:19:47;11.05;;;6.97;;
47625;SDS011;33342;45.574;9.252;2023-04-01T00:22:14;10.32;;;6.70;;
47625;SDS011;33342;45.574;9.252;2023-04-01T00:24:41;12.00;;;7.20;;
47625;SDS011;33342;45.574;9.252;2023-04-01T00:27:08;10.63;;;7.25;;
47625;SDS011;33342;45.574;9.252;2023-04-01T00:29:35;9.57;;;6.32;;
47625;SDS011;33342;45.574;9.252;2023-04-01T00:32:03;10.60;;;6.93;;
47625;SDS011;33342;45.574;9.252;2023-04-01T00:34:30;10.80;;;6.15;;
47625;SDS011;33342;45.574;9.252;2023-04-01T00:36:57;11.77;;;6.60;;
47625;SDS011;33342;45.574;9.252;2023-04-01T00:39:24;10.77;;;7.15;;
47625;SDS011;33342;45.574;9.252;2023-04-01T00:41:51;11.05;;;6.70;;
47625;SDS011;33342;45.574;9.252;2023-04-01T00:44:20;10.27;;;6.50;;
47625;SDS011;33342;45.574;9.252;2023-04-01T00:46:49;13.13;;;7.75;;
47625;SDS011;33342;45.574;9.252;2023-04-01T00:49:17;9.95;;;6.20;;
47625;SDS011;33342;45.574;9.252;2023-04-01T00:51:47;10.63;;;6.60;;
47625;SDS011;33342;45.574;9.252;2023-04-01T00:54:16;9.88;;;5.65;;
47625;SDS011;33342;45.574;9.252;2023-04-01T00:56:50;11.07;;;6.40;;
47625;SDS011;33342;45.574;9.252;2023-04-01T00:59:30;10.60;;;6.82;;
47625;SDS011;33342;45.574;9.252;2023-04-01T01:02:01;9.65;;;6.13;;
47625;SDS011;33342;45.574;9.252;2023-04-01T01:04:30;9.70;;;6.47;;
47625;SDS011;33342;45.574;9.252;2023-04-01T01:09:47;10.48;;;6.15;;
47625;SDS011;33342;45.574;9.252;2023-04-01T01:18:13;11.38;;;5.35;;
47625;SDS011;33342;45.574;9.252;2023-04-01T01:21:06;9.35;;;5.50;;
47625;SDS011;33342;45.574;9.252;2023-04-01T01:26:57;9.07;;;5.38;;
47625;SDS011;33342;45.574;9.252;2023-04-01T01:29:42;9.15;;;5.75;;
47625;SDS011;33342;45.574;9.252;2023-04-01T01:35:13;10.18;;;5.38;;
47625;SDS011;33342;45.574;9.252;2023-04-01T01:38:11;10.73;;;4.88;;
47625;SDS011;33342;45.574;9.252;2023-04-01T01:40:48;8.25;;;5.20;;
47625;SDS011;33342;45.574;9.252;2023-04-01T01:43:23;10.80;;;5.28;;
47625;SDS011;33342;45.574;9.252;2023-04-01T01:45:54;9.13;;;5.53;;
47625;SDS011;33342;45.574;9.252;2023-04-01T01:48:26;9.88;;;5.40;;
47625;SDS011;33342;45.574;9.252;2023-04-01T01:50:54;8.75;;;5.07;;
47625;SDS011;33342;45.574;9.252;2023-04-01T01:53:21;7.22;;;4.70;;
47625;SDS011;33342;45.574;9.252;2023-04-01T01:55:48;7.93;;;4.95;;
47625;SDS011;33342;45.574;9.252;2023-04-01T02:00:49;9.82;;;5.18;;
47625;SDS011;33342;45.574;9.252;2023-04-01T02:03:23;10.50;;;5.03;;
47625;SDS011;33342;45.574;9.252;2023-04-01T02:05:53;8.77;;;5.20;;
47625;SDS011;33342;45.574;9.252;2023-04-01T02:08:28;8.18;;;4.80;;
47625;SDS011;33342;45.574;9.252;2023-04-01T02:11:01;6.82;;;4.05;;
47625;SDS011;33342;45.574;9.252;2023-04-01T02:16:13;7.75;;;4.32;;
47625;SDS011;33342;45.574;9.252;2023-04-01T02:18:45;9.25;;;3.88;;
47625;SDS011;33342;45.574;9.252;2023-04-01T02:21:16;6.80;;;3.45;;
47625;SDS011;33342;45.574;9.252;2023-04-01T02:23:46;7.00;;;3.72;;
47625;SDS011;33342;45.574;9.252;2023-04-01T02:26:13;7.90;;;4.07;;
47625;SDS011;33342;45.574;9.252;2023-04-01T02:28:41;6.63;;;3.75;;
47625;SDS011;33342;45.574;9.252;2023-04-01T02:31:11;6.97;;;3.80;;
47625;SDS011;33342;45.574;9.252;2023-04-01T02:33:40;6.90;;;3.30;;
47625;SDS011;33342;45.574;9.252;2023-04-01T02:36:12;5.93;;;2.97;;
47625;SDS011;33342;45.574;9.252;2023-04-01T02:38:41;6.18;;;3.42;;
47625;SDS011;33342;45.574;9.252;2023-04-01T02:41:11;9.00;;;3.28;;
47625;SDS011;33342;45.574;9.252;2023-04-01T02:43:38;6.93;;;3.10;;
47625;SDS011;33342;45.574;9.252;2023-04-01T02:46:05;7.25;;;3.03;;
47625;SDS011;33342;45.574;9.252;2023-04-01T02:48:32;8.07;;;3.00;;
47625;SDS011;33342;45.574;9.252;2023-04-01T02:50:59;5.20;;;3.08;;
47625;SDS011;33342;45.574;9.252;2023-04-01T02:53:27;5.85;;;3.40;;
47625;SDS011;33342;45.574;9.252;2023-04-01T02:55:54;9.57;;;3.28;;
47625;SDS011;33342;45.574;9.252;2023-04-01T02:58:22;6.88;;;3.17;;
47625;SDS011;33342;45.574;9.252;2023-04-01T03:00:49;6.78;;;3.20;;
47625;SDS011;33342;45.574;9.252;2023-04-01T03:03:16;6.80;;;3.28;;
47625;SDS011;33342;45.574;9.252;2023-04-01T03:05:43;6.63;;;3.47;;
47625;SDS011;33342;45.574;9.252;2023-04-01T03:08:10;6.88;;;3.13;;
47625;SDS011;33342;45.574;9.252;2023-04-01T03:10:38;7.88;;;3.08;;
47625;SDS011;33342;45.574;9.252;2023-04-01T03:13:05;7.75;;;3.33;;
47625;SDS011;33342;45.574;9.252;2023-04-01T03:15:33;7.72;;;3.08;;
47625;SDS011;33342;45.574;9.252;2023-04-01T03:18:00;6.00;;;2.80;;
47625;SDS011;33342;45.574;9.252;2023-04-01T03:20:27;6.65;;;2.85;;
47625;SDS011;33342;45.574;9.252;2023-04-01T03:22:54;6.93;;;3.35;;
47625;SDS011;33342;45.574;9.252;2023-04-01T03:25:21;6.72;;;3.40;;
47625;SDS011;33342;45.574;9.252;2023-04-01T03:27:48;5.88;;;3.20;;
47625;SDS011;33342;45.574;9.252;2023-04-01T03:30:15;7.63;;;3.30;;
47625;SDS011;33342;45.574;9.252;2023-04-01T03:32:48;6.30;;;3.03;;
47625;SDS011;33342;45.574;9.252;2023-04-01T03:35:15;5.85;;;3.28;;
47625;SDS011;33342;45.574;9.252;2023-04-01T03:37:44;5.60;;;2.92;;
47625;SDS011;33342;45.574;9.252;2023-04-01T03:40:12;6.65;;;3.20;;
47625;SDS011;33342;45.574;9.252;2023-04-01T03:42:39;10.35;;;3.38;;
47625;SDS011;33342;45.574;9.252;2023-04-01T03:45:06;7.25;;;4.10;;
47625;SDS011;33342;45.574;9.252;2023-04-01T03:47:33;7.30;;;3.35;;
47625;SDS011;33342;45.574;9.252;2023-04-01T03:50:01;8.02;;;3.75;;
47625;SDS011;33342;45.574;9.252;2023-04-01T03:52:28;7.85;;;3.97;;
47625;SDS011;33342;45.574;9.252;2023-04-01T03:54:55;7.05;;;4.10;;
47625;SDS011;33342;45.574;9.252;2023-04-01T03:57:22;7.10;;;4.38;;
47625;SDS011;33342;45.574;9.252;2023-04-01T03:59:49;7.20;;;3.70;;
47625;SDS011;33342;45.574;9.252;2023-04-01T04:02:17;7.63;;;3.97;;
47625;SDS011;33342;45.574;9.252;2023-04-01T04:04:44;8.55;;;4.10;;
47625;SDS011;33342;45.574;9.252;2023-04-01T04:07:13;7.72;;;3.72;;
47625;SDS011;33342;45.574;9.252;2023-04-01T04:09:57;8.68;;;3.72;;
47625;SDS011;33342;45.574;9.252;2023-04-01T04:12:24;9.77;;;4.13;;
47625;SDS011;33342;45.574;9.252;2023-04-01T04:14:53;9.20;;;4.20;;
47625;SDS011;33342;45.574;9.252;2023-04-01T04:17:20;8.68;;;4.47;;
47625;SDS011;33342;45.574;9.252;2023-04-01T04:19:47;7.93;;;4.45;;
47625;SDS011;33342;45.574;9.252;2023-04-01T04:22:15;8.25;;;4.32;;
47625;SDS011;33342;45.574;9.252;2023-04-01T04:24:42;8.32;;;4.65;;
47625;SDS011;33342;45.574;9.252;2023-04-01T04:27:11;7.78;;;4.65;;
47625;SDS011;33342;45.574;9.252;2023-04-01T04:29:51;8.55;;;5.15;;
47625;SDS011;33342;45.574;9.252;2023-04-01T04:32:18;7.25;;;4.18;;
47625;SDS011;33342;45.574;9.252;2023-04-01T04:34:45;9.07;;;4.95;;
47625;SDS011;33342;45.574;9.252;2023-04-01T04:37:12;7.68;;;4.30;;
47625;SDS011;33342;45.574;9.252;2023-04-01T04:39:39;7.32;;;4.28;;
47625;SDS011;33342;45.574;9.252;2023-04-01T04:42:06;7.63;;;4.00;;
47625;SDS011;33342;45.574;9.252;2023-04-01T04:44:33;9.18;;;4.28;;
47625;SDS011;33342;45.574;9.252;2023-04-01T04:47:00;9.10;;;4.28;;
47625;SDS011;33342;45.574;9.252;2023-04-01T04:49:28;8.98;;;4.13;;
47625;SDS011;33342;45.574;9.252;2023-04-01T04:51:55;7.43;;;4.32;;
47625;SDS011;33342;45.574;9.252;2023-04-01T04:54:25;7.30;;;4.05;;
47625;SDS011;33342;45.574;9.252;2023-04-01T04:56:58;8.48;;;3.65;;
47625;SDS011;33342;45.574;9.252;2023-04-01T04:59:27;8.65;;;4.55;;
47625;SDS011;33342;45.574;9.252;2023-04-01T05:02:15;7.85;;;3.83;;
47625;SDS011;33342;45.574;9.252;2023-04-01T05:04:42;6.80;;;3.80;;
47625;SDS011;33342;45.574;9.252;2023-04-01T05:07:10;7.18;;;3.92;;
47625;SDS011;33342;45.574;9.252;2023-04-01T05:09:37;6.72;;;3.88;;
47625;SDS011;33342;45.574;9.252;2023-04-01T05:12:04;9.52;;;4.28;;
47625;SDS011;33342;45.574;9.252;2023-04-01T05:14:51;9.90;;;3.83;;
47625;SDS011;33342;45.574;9.252;2023-04-01T05:17:19;7.95;;;4.00;;
47625;SDS011;33342;45.574;9.252;2023-04-01T05:19:46;9.27;;;4.20;;
47625;SDS011;33342;45.574;9.252;2023-04-01T05:22:13;8.90;;;3.75;;
47625;SDS011;33342;45.574;9.252;2023-04-01T05:24:41;6.38;;;3.60;;
47625;SDS011;33342;45.574;9.252;2023-04-01T05:27:10;6.65;;;3.65;;
47625;SDS011;33342;45.574;9.252;2023-04-01T05:29:39;7.07;;;4.05;;
47625;SDS011;33342;45.574;9.252;2023-04-01T05:32:11;6.72;;;3.17;;
47625;SDS011;33342;45.574;9.252;2023-04-01T05:34:38;6.70;;;3.55;;
47625;SDS011;33342;45.574;9.252;2023-04-01T05:37:05;7.28;;;4.57;;
47625;SDS011;33342;45.574;9.252;2023-04-01T05:39:35;10.00;;;4.47;;
47625;SDS011;33342;45.574;9.252;2023-04-01T05:42:07;7.30;;;4.32;;
47625;SDS011;33342;45.574;9.252;2023-04-01T05:44:35;7.22;;;4.03;;
47625;SDS011;33342;45.574;9.252;2023-04-01T05:47:03;6.50;;;3.67;;
47625;SDS011;33342;45.574;9.252;2023-04-01T05:49:30;5.93;;;3.20;;
47625;SDS011;33342;45.574;9.252;2023-04-01T05:52:00;6.60;;;3.10;;
47625;SDS011;33342;45.574;9.252;2023-04-01T05:54:27;6.82;;;3.53;;
47625;SDS011;33342;45.574;9.252;2023-04-01T05:56:55;7.82;;;3.33;;
47625;SDS011;33342;45.574;9.252;2023-04-01T05:59:22;7.22;;;3.38;;
47625;SDS011;33342;45.574;9.252;2023-04-01T06:01:49;6.32;;;3.42;;
47625;SDS011;33342;45.574;9.252;2023-04-01T06:04:17;5.78;;;3.30;;
47625;SDS011;33342;45.574;9.252;2023-04-01T06:06:45;7.07;;;3.70;;
47625;SDS011;33342;45.574;9.252;2023-04-01T06:09:14;8.93;;;3.97;;
47625;SDS011;33342;45.574;9.252;2023-04-01T06:11:54;8.30;;;3.97;;
47625;SDS011;33342;45.574;9.252;2023-04-01T06:31:13;7.80;;;3.90;;
47625;SDS011;33342;45.574;9.252;2023-04-01T06:39:24;11.00;;;5.70;;
47625;SDS011;33342;45.574;9.252;2023-04-01T06:42:05;8.65;;;4.60;;
47625;SDS011;33342;45.574;9.252;2023-04-01T06:48:10;8.43;;;4.70;;
47625;SDS011;33342;45.574;9.252;2023-04-01T06:51:14;9.60;;;4.80;;
47625;SDS011;33342;45.574;9.252;2023-04-01T06:54:42;8.95;;;4.90;;
47625;SDS011;33342;45.574;9.252;2023-04-01T06:57:43;9.02;;;4.75;;
47625;SDS011;33342;45.574;9.252;2023-04-01T07:00:14;9.48;;;4.95;;
47625;SDS011;33342;45.574;9.252;2023-04-01T07:03:02;10.55;;;4.60;;
47625;SDS011;33342;45.574;9.252;2023-04-01T07:05:36;11.35;;;4.15;;
47625;SDS011;33342;45.574;9.252;2023-04-01T07:08:04;13.30;;;4.30;;
47625;SDS011;33342;45.574;9.252;2023-04-01T07:10:50;9.60;;;4.68;;
47625;SDS011;33342;45.574;9.252;2023-04-01T07:13:51;14.15;;;4.20;;
47625;SDS011;33342;45.574;9.252;2023-04-01T07:16:46;8.18;;;3.45;;
47625;SDS011;33342;45.574;9.252;2023-04-01T07:19:27;6.43;;;3.35;;
47625;SDS011;33342;45.574;9.252;2023-04-01T07:22:15;8.27;;;3.28;;
47625;SDS011;33342;45.574;9.252;2023-04-01T07:25:34;6.05;;;3.25;;
47625;SDS011;33342;45.574;9.252;2023-04-01T07:28:26;5.75;;;3.00;;
47625;SDS011;33342;45.574;9.252;2023-04-01T07:33:39;6.88;;;4.00;;
47625;SDS011;33342;45.574;9.252;2023-04-01T07:36:37;7.55;;;3.90;;
47625;SDS011;33342;45.574;9.252;2023-04-01T07:42:22;7.53;;;3.20;;
47625;SDS011;33342;45.574;9.252;2023-04-01T07:48:20;8.63;;;3.58;;
47625;SDS011;33342;45.574;9.252;2023-04-01T07:54:04;7.07;;;3.40;;
47625;SDS011;33342;45.574;9.252;2023-04-01T07:56:45;7.07;;;3.80;;
47625;SDS011;33342;45.574;9.252;2023-04-01T08:02:30;9.43;;;3.80;;
47625;SDS011;33342;45.574;9.252;2023-04-01T08:05:26;8.05;;;3.78;;
47625;SDS011;33342;45.574;9.252;2023-04-01T08:08:03;8.75;;;3.80;;
47625;SDS011;33342;45.574;9.252;2023-04-01T08:12:15;7.72;;;3.75;;
47625;SDS011;33342;45.574;9.252;2023-04-01T08:14:48;8.57;;;3.10;;
47625;SDS011;33342;45.574;9.252;2023-04-01T08:21:00;5.70;;;2.90;;
47625;SDS011;33342;45.574;9.252;2023-04-01T08:23:33;7.40;;;2.95;;
47625;SDS011;33342;45.574;9.252;2023-04-01T08:26:06;6.07;;;2.83;;
47625;SDS011;33342;45.574;9.252;2023-04-01T08:28:44;6.15;;;2.78;;
47625;SDS011;33342;45.574;9.252;2023-04-01T08:31:18;6.10;;;2.95;;
47625;SDS011;33342;45.574;9.252;2023-04-01T08:34:01;5.93;;;2.70;;
47625;SDS011;33342;45.574;9.252;2023-04-01T08:36:34;5.10;;;2.55;;
47625;SDS011;33342;45.574;9.252;2023-04-01T08:39:16;7.32;;;2.90;;
47625;SDS011;33342;45.574;9.252;2023-04-01T08:45:07;5.78;;;3.05;;
47625;SDS011;33342;45.574;9.252;2023-04-01T09:01:57;7.78;;;3.13;;
47625;SDS011;33342;45.574;9.252;2023-04-01T09:10:24;4.85;;;2.45;;
47625;SDS011;33342;45.574;9.252;2023-04-01T09:14:02;3.33;;;1.83;;
47625;SDS011;33342;45.574;9.252;2023-04-01T09:16:56;3.60;;;1.55;;
47625;SDS011;33342;45.574;9.252;2023-04-01T09:22:35;2.58;;;1.15;;
47625;SDS011;33342;45.574;9.252;2023-04-01T09:25:24;4.28;;;1.15;;
47625;SDS011;33342;45.574;9.252;2023-04-01T09:37:34;4.18;;;0.85;;
47625;SDS011;33342;45.574;9.252;2023-04-01T09:43:06;3.22;;;0.68;;
47625;SDS011;33342;45.574;9.252;2023-04-01T09:54:28;1.75;;;0.60;;
47625;SDS011;33342;45.574;9.252;2023-04-01T10:26:05;2.03;;;0.70;;
47625;SDS011;33342;45.574;9.252;2023-04-01T10:34:48;3.15;;;1.00;;
47625;SDS011;33342;45.574;9.252;2023-04-01T10:58:34;5.53;;;0.70;;
47625;SDS011;33342;45.574;9.252;2023-04-01T11:13:55;2.28;;;0.90;;
47625;SDS011;33342;45.574;9.252;2023-04-01T11:19:31;2.80;;;0.90;;
47625;SDS011;33342;45.574;9.252;2023-04-01T11:22:45;2.03;;;0.75;;
47625;SDS011;33342;45.574;9.252;2023-04-01T11:34:32;3.10;;;1.25;;
47625;SDS011;33342;45.574;9.252;2023-04-01T11:37:44;2.20;;;0.50;;
47625;SDS011;33342;45.574;9.252;2023-04-01T11:40:51;2.05;;;0.60;;
47625;SDS011;33342;45.574;9.252;2023-04-01T11:46:49;6.93;;;0.82;;
47625;SDS011;33342;45.574;9.252;2023-04-01T12:00:45;1.42;;;0.60;;
47625;SDS011;33342;45.574;9.252;2023-04-01T12:08:41;5.47;;;0.60;;
47625;SDS011;33342;45.574;9.252;2023-04-01T12:14:33;2.13;;;0.50;;
47625;SDS011;33342;45.574;9.252;2023-04-01T12:28:51;0.82;;;0.40;;
47625;SDS011;33342;45.574;9.252;2023-04-01T12:31:56;1.00;;;0.52;;
47625;SDS011;33342;45.574;9.252;2023-04-01T12:42:58;1.13;;;0.55;;
47625;SDS011;33342;45.574;9.252;2023-04-01T12:46:09;1.05;;;0.50;;
47625;SDS011;33342;45.574;9.252;2023-04-01T12:51:20;3.42;;;0.57;;
47625;SDS011;33342;45.574;9.252;2023-04-01T12:59:32;1.13;;;0.45;;
47625;SDS011;33342;45.574;9.252;2023-04-01T13:05:20;1.33;;;0.50;;
47625;SDS011;33342;45.574;9.252;2023-04-01T13:16:58;1.45;;;0.55;;
47625;SDS011;33342;45.574;9.252;2023-04-01T13:22:11;1.23;;;0.40;;
47625;SDS011;33342;45.574;9.252;2023-04-01T13:24:50;1.02;;;0.50;;
47625;SDS011;33342;45.574;9.252;2023-04-01T13:32:50;4.05;;;0.60;;
47625;SDS011;33342;45.574;9.252;2023-04-01T13:43:52;1.63;;;0.60;;
47625;SDS011;33342;45.574;9.252;2023-04-01T13:49:23;1.65;;;0.50;;
47625;SDS011;33342;45.574;9.252;2023-04-01T14:03:16;1.20;;;0.50;;
47625;SDS011;33342;45.574;9.252;2023-04-01T14:09:10;0.93;;;0.43;;
47625;SDS011;33342;45.574;9.252;2023-04-01T14:11:56;1.08;;;0.50;;
47625;SDS011;33342;45.574;9.252;2023-04-01T14:20:36;1.85;;;0.35;;
47625;SDS011;33342;45.574;9.252;2023-04-01T14:23:49;1.23;;;0.38;;
47625;SDS011;33342;45.574;9.252;2023-04-01T14:39:54;0.98;;;0.30;;
47625;SDS011;33342;45.574;9.252;2023-04-01T14:54:15;0.85;;;0.32;;
47625;SDS011;33342;45.574;9.252;2023-04-01T14:57:10;0.38;;;0.30;;
47625;SDS011;33342;45.574;9.252;2023-04-01T15:02:51;2.63;;;0.50;;
47625;SDS011;33342;45.574;9.252;2023-04-01T15:08:28;1.00;;;0.40;;
47625;SDS011;33342;45.574;9.252;2023-04-01T15:11:11;1.23;;;0.43;;
47625;SDS011;33342;45.574;9.252;2023-04-01T15:28:39;1.23;;;0.50;;
47625;SDS011;33342;45.574;9.252;2023-04-01T15:37:18;0.88;;;0.40;;
47625;SDS011;33342;45.574;9.252;2023-04-01T15:42:32;1.30;;;0.38;;
47625;SDS011;33342;45.574;9.252;2023-04-01T15:48:12;2.75;;;0.50;;
47625;SDS011;33342;45.574;9.252;2023-04-01T15:51:01;0.90;;;0.40;;
47625;SDS011;33342;45.574;9.252;2023-04-01T15:53:35;0.82;;;0.40;;
47625;SDS011;33342;45.574;9.252;2023-04-01T16:02:21;10.88;;;4.32;;
47625;SDS011;33342;45.574;9.252;2023-04-01T16:05:08;1.67;;;0.68;;
47625;SDS011;33342;45.574;9.252;2023-04-01T16:10:29;1.25;;;0.50;;
47625;SDS011;33342;45.574;9.252;2023-04-01T16:13:35;0.80;;;0.52;;
47625;SDS011;33342;45.574;9.252;2023-04-01T16:22:06;1.33;;;0.60;;
47625;SDS011;33342;45.574;9.252;2023-04-01T16:28:09;1.63;;;0.65;;
47625;SDS011;33342;45.574;9.252;2023-04-01T16:40:02;1.95;;;0.73;;
47625;SDS011;33342;45.574;9.252;2023-04-01T16:42:52;2.00;;;0.65;;
47625;SDS011;33342;45.574;9.252;2023-04-01T16:48:22;1.52;;;0.63;;
47625;SDS011;33342;45.574;9.252;2023-04-01T16:51:09;2.22;;;1.10;;
47625;SDS011;33342;45.574;9.252;2023-04-01T16:53:42;3.33;;;0.82;;
47625;SDS011;33342;45.574;9.252;2023-04-01T16:56:23;1.65;;;0.93;;
47625;SDS011;33342;45.574;9.252;2023-04-01T17:01:30;1.38;;;0.60;;
47625;SDS011;33342;45.574;9.252;2023-04-01T17:10:06;3.80;;;1.65;;
47625;SDS011;33342;45.574;9.252;2023-04-01T17:15:51;5.20;;;1.40;;
47625;SDS011;33342;45.574;9.252;2023-04-01T17:24:32;4.60;;;1.90;;
47625;SDS011;33342;45.574;9.252;2023-04-01T17:35:24;2.42;;;0.93;;
47625;SDS011;33342;45.574;9.252;2023-04-01T17:38:17;2.92;;;0.98;;
47625;SDS011;33342;45.574;9.252;2023-04-01T17:43:40;2.70;;;1.20;;
47625;SDS011;33342;45.574;9.252;2023-04-01T17:46:29;3.85;;;1.05;;
47625;SDS011;33342;45.574;9.252;2023-04-01T17:49:14;3.33;;;0.80;;
47625;SDS011;33342;45.574;9.252;2023-04-01T18:05:30;4.05;;;1.08;;
47625;SDS011;33342;45.574;9.252;2023-04-01T18:24:11;2.70;;;1.00;;
47625;SDS011;33342;45.574;9.252;2023-04-01T18:27:00;2.75;;;1.08;;
47625;SDS011;33342;45.574;9.252;2023-04-01T18:29:55;2.58;;;1.00;;
47625;SDS011;33342;45.574;9.252;2023-04-01T18:32:43;4.20;;;1.17;;
47625;SDS011;33342;45.574;9.252;2023-04-01T18:46:19;5.43;;;1.90;;
47625;SDS011;33342;45.574;9.252;2023-04-01T18:49:08;4.03;;;1.83;;
47625;SDS011;33342;45.574;9.252;2023-04-01T18:52:31;5.03;;;1.77;;
47625;SDS011;33342;45.574;9.252;2023-04-01T18:57:42;5.47;;;1.98;;
47625;SDS011;33342;45.574;9.252;2023-04-01T19:03:02;3.78;;;1.60;;
47625;SDS011;33342;45.574;9.252;2023-04-01T19:05:47;6.30;;;2.00;;
47625;SDS011;33342;45.574;9.252;2023-04-01T19:11:11;4.80;;;2.30;;
47625;SDS011;33342;45.574;9.252;2023-04-01T19:14:03;6.18;;;2.10;;
47625;SDS011;33342;45.574;9.252;2023-04-01T19:25:53;5.40;;;2.63;;
47625;SDS011;33342;45.574;9.252;2023-04-01T19:39:23;6.82;;;2.97;;
47625;SDS011;33342;45.574;9.252;2023-04-01T19:44:51;7.88;;;4.43;;
47625;SDS011;33342;45.574;9.252;2023-04-01T19:47:31;11.13;;;4.15;;
47625;SDS011;33342;45.574;9.252;2023-04-01T19:52:50;7.15;;;3.30;;
47625;SDS011;33342;45.574;9.252;2023-04-01T19:58:46;7.05;;;2.60;;
47625;SDS011;33342;45.574;9.252;2023-04-01T20:01:00;5.63;;;2.40;;
47625;SDS011;33342;45.574;9.252;2023-04-01T20:03:32;6.72;;;2.60;;
47625;SDS011;33342;45.574;9.252;2023-04-01T20:06:13;6.00;;;2.38;;
47625;SDS011;33342;45.574;9.252;2023-04-01T20:09:08;5.25;;;2.00;;
47625;SDS011;33342;45.574;9.252;2023-04-01T20:11:55;5.10;;;2.30;;
47625;SDS011;33342;45.574;9.252;2023-04-01T20:14:48;6.65;;;2.40;;
47625;SDS011;33342;45.574;9.252;2023-04-01T20:17:21;7.10;;;3.00;;
47625;SDS011;33342;45.574;9.252;2023-04-01T20:25:14;9.07;;;3.65;;
47625;SDS011;33342;45.574;9.252;2023-04-01T20:27:52;6.13;;;3.03;;
47625;SDS011;33342;45.574;9.252;2023-04-01T20:36:26;9.98;;;5.68;;
47625;SDS011;33342;45.574;9.252;2023-04-01T20:52:32;7.65;;;3.47;;
47625;SDS011;33342;45.574;9.252;2023-04-01T21:06:44;6.32;;;2.78;;
47625;SDS011;33342;45.574;9.252;2023-04-01T21:14:31;7.85;;;2.90;;
47625;SDS011;33342;45.574;9.252;2023-04-01T21:22:45;6.93;;;3.72;;
47625;SDS011;33342;45.574;9.252;2023-04-01T21:28:51;6.60;;;3.03;;
47625;SDS011;33342;45.574;9.252;2023-04-01T21:31:51;5.70;;;2.42;;
47625;SDS011;33342;45.574;9.252;2023-04-01T21:34:43;4.85;;;2.53;;
47625;SDS011;33342;45.574;9.252;2023-04-01T21:43:17;9.48;;;3.65;;
47625;SDS011;33342;45.574;9.252;2023-04-01T21:57:31;6.47;;;2.78;;
47625;SDS011;33342;45.574;9.252;2023-04-01T22:05:55;7.55;;;3.40;;
47625;SDS011;33342;45.574;9.252;2023-04-01T22:08:33;6.25;;;3.35;;
47625;SDS011;33342;45.574;9.252;2023-04-01T22:13:59;7.72;;;2.70;;
47625;SDS011;33342;45.574;9.252;2023-04-01T22:16:54;7.18;;;3.40;;
47625;SDS011;33342;45.574;9.252;2023-04-01T22:19:34;8.90;;;3.13;;
47625;SDS011;33342;45.574;9.252;2023-04-01T22:22:49;6.05;;;2.70;;
47625;SDS011;33342;45.574;9.252;2023-04-01T22:25:29;7.07;;;3.03;;
47625;SDS011;33342;45.574;9.252;2023-04-01T22:30:51;6.55;;;2.72;;
47625;SDS011;33342;45.574;9.252;2023-04-01T22:50:39;6.25;;;3.70;;
47625;SDS011;33342;45.574;9.252;2023-04-01T22:53:14;8.48;;;4.40;;
47625;SDS011;33342;45.574;9.252;2023-04-01T22:55:43;8.00;;;4.18;;
47625;SDS011;33342;45.574;9.252;2023-04-01T22:58:26;6.45;;;3.28;;
47625;SDS011;33342;45.574;9.252;2023-04-01T23:00:59;8.45;;;4.20;;
47625;SDS011;33342;45.574;9.252;2023-04-01T23:03:32;8.13;;;3.47;;
47625;SDS011;33342;45.574;9.252;2023-04-01T23:06:03;8.25;;;4.78;;
47625;SDS011;33342;45.574;9.252;2023-04-01T23:11:32;7.07;;;3.05;;
47625;SDS011;33342;45.574;9.252;2023-04-01T23:17:07;9.45;;;3.70;;
47625;SDS011;33342;45.574;9.252;2023-04-01T23:22:37;7.57;;;3.55;;
47625;SDS011;33342;45.574;9.252;2023-04-01T23:35:49;6.53;;;3.10;;
47625;SDS011;33342;45.574;9.252;2023-04-01T23:38:42;10.02;;;4.72;;
47625;SDS011;33342;45.574;9.252;2023-04-01T23:41:25;7.88;;;3.70;;
47625;SDS011;33342;45.574;9.252;2023-04-01T23:43:57;7.15;;;3.22;;
47625;SDS011;33342;45.574;9.252;2023-04-01T23:46:30;10.02;;;3.60;;
47625;SDS011;33342;45.574;9.252;2023-04-01T23:49:00;7.05;;;3.25;;
47625;SDS011;33342;45.574;9.252;2023-04-01T23:51:29;7.65;;;4.05;;
47625;SDS011;33342;45.574;9.252;2023-04-01T23:54:17;6.68;;;2.97;;
47625;SDS011;33342;45.574;9.252;2023-04-01T23:56:53;8.07;;;2.78;;
47625;SDS011;33342;45.574;9.252;2023-04-01T23:59:23;5.28;;;2.22;;
